sensor_id;sensor_type;location;lat;lon;timestamp;P1;durP1;ratioP1;P2;durP2;ratioP2
56541;SDS011;42438;53.174;6.730;2023-03-01T00:02:21;39.63;;;9.00;;
56541;SDS011;42438;53.174;6.730;2023-03-01T00:04:52;25.60;;;7.35;;
56541;SDS011;42438;53.174;6.730;2023-03-01T00:07:23;23.92;;;7.43;;
56541;SDS011;42438;53.174;6.730;2023-03-01T00:09:54;31.23;;;8.27;;
56541;SDS011;42438;53.174;6.730;2023-03-01T00:12:25;15.40;;;7.15;;
56541;SDS011;42438;53.174;6.730;2023-03-01T00:14:57;17.80;;;7.25;;
56541;SDS011;42438;53.174;6.730;2023-03-01T00:17:28;73.15;;;9.73;;
56541;SDS011;42438;53.174;6.730;2023-03-01T00:19:59;54.55;;;9.77;;
56541;SDS011;42438;53.174;6.730;2023-03-01T00:22:30;61.35;;;9.73;;
56541;SDS011;42438;53.174;6.730;2023-03-01T00:25:02;38.25;;;9.40;;
56541;SDS011;42438;53.174;6.730;2023-03-01T00:27:33;20.20;;;7.95;;
56541;SDS011;42438;53.174;6.730;2023-03-01T00:30:05;12.88;;;7.65;;
56541;SDS011;42438;53.174;6.730;2023-03-01T00:32:36;11.65;;;7.07;;
56541;SDS011;42438;53.174;6.730;2023-03-01T00:35:07;10.07;;;6.20;;
56541;SDS011;42438;53.174;6.730;2023-03-01T00:37:38;11.43;;;7.35;;
56541;SDS011;42438;53.174;6.730;2023-03-01T00:40:10;15.32;;;7.70;;
56541;SDS011;42438;53.174;6.730;2023-03-01T00:42:41;14.20;;;7.82;;
56541;SDS011;42438;53.174;6.730;2023-03-01T00:45:13;13.85;;;8.40;;
56541;SDS011;42438;53.174;6.730;2023-03-01T00:47:44;14.57;;;8.05;;
56541;SDS011;42438;53.174;6.730;2023-03-01T00:50:15;14.50;;;8.35;;
56541;SDS011;42438;53.174;6.730;2023-03-01T00:52:46;13.00;;;6.47;;
56541;SDS011;42438;53.174;6.730;2023-03-01T00:55:17;14.88;;;8.60;;
56541;SDS011;42438;53.174;6.730;2023-03-01T00:57:48;18.00;;;9.43;;
56541;SDS011;42438;53.174;6.730;2023-03-01T01:00:19;14.63;;;7.95;;
56541;SDS011;42438;53.174;6.730;2023-03-01T01:02:51;12.55;;;7.72;;
56541;SDS011;42438;53.174;6.730;2023-03-01T01:05:22;11.98;;;6.07;;
56541;SDS011;42438;53.174;6.730;2023-03-01T01:07:53;11.45;;;6.80;;
56541;SDS011;42438;53.174;6.730;2023-03-01T01:10:24;12.55;;;7.63;;
56541;SDS011;42438;53.174;6.730;2023-03-01T01:12:55;37.58;;;7.90;;
56541;SDS011;42438;53.174;6.730;2023-03-01T01:15:26;13.75;;;7.85;;
56541;SDS011;42438;53.174;6.730;2023-03-01T01:17:57;11.68;;;6.57;;
56541;SDS011;42438;53.174;6.730;2023-03-01T01:20:28;10.90;;;6.50;;
56541;SDS011;42438;53.174;6.730;2023-03-01T01:22:59;10.20;;;7.05;;
56541;SDS011;42438;53.174;6.730;2023-03-01T01:25:30;48.20;;;9.00;;
56541;SDS011;42438;53.174;6.730;2023-03-01T01:28:01;43.65;;;9.63;;
56541;SDS011;42438;53.174;6.730;2023-03-01T01:30:32;55.75;;;10.65;;
56541;SDS011;42438;53.174;6.730;2023-03-01T01:33:03;28.63;;;9.02;;
56541;SDS011;42438;53.174;6.730;2023-03-01T01:35:34;85.53;;;10.95;;
56541;SDS011;42438;53.174;6.730;2023-03-01T01:38:05;45.40;;;9.48;;
56541;SDS011;42438;53.174;6.730;2023-03-01T01:40:42;41.70;;;10.57;;
56541;SDS011;42438;53.174;6.730;2023-03-01T01:43:31;32.55;;;9.70;;
56541;SDS011;42438;53.174;6.730;2023-03-01T01:48:41;18.00;;;7.88;;
56541;SDS011;42438;53.174;6.730;2023-03-01T01:51:15;13.73;;;7.57;;
56541;SDS011;42438;53.174;6.730;2023-03-01T01:53:49;14.02;;;7.30;;
56541;SDS011;42438;53.174;6.730;2023-03-01T01:56:21;74.55;;;10.68;;
56541;SDS011;42438;53.174;6.730;2023-03-01T01:58:54;34.65;;;9.85;;
56541;SDS011;42438;53.174;6.730;2023-03-01T02:01:26;84.32;;;12.90;;
56541;SDS011;42438;53.174;6.730;2023-03-01T02:03:57;88.35;;;12.50;;
56541;SDS011;42438;53.174;6.730;2023-03-01T02:06:29;50.35;;;9.73;;
56541;SDS011;42438;53.174;6.730;2023-03-01T02:09:05;12.90;;;8.07;;
56541;SDS011;42438;53.174;6.730;2023-03-01T02:11:41;18.67;;;8.05;;
56541;SDS011;42438;53.174;6.730;2023-03-01T02:14:14;23.80;;;8.45;;
56541;SDS011;42438;53.174;6.730;2023-03-01T02:16:45;35.90;;;9.93;;
56541;SDS011;42438;53.174;6.730;2023-03-01T02:19:27;36.95;;;9.98;;
56541;SDS011;42438;53.174;6.730;2023-03-01T02:22:22;17.80;;;7.20;;
56541;SDS011;42438;53.174;6.730;2023-03-01T02:30:27;56.92;;;11.13;;
56541;SDS011;42438;53.174;6.730;2023-03-01T02:33:00;65.43;;;10.10;;
56541;SDS011;42438;53.174;6.730;2023-03-01T02:35:35;50.83;;;9.77;;
56541;SDS011;42438;53.174;6.730;2023-03-01T02:38:08;68.65;;;10.10;;
56541;SDS011;42438;53.174;6.730;2023-03-01T02:40:39;44.30;;;9.38;;
56541;SDS011;42438;53.174;6.730;2023-03-01T02:43:11;39.17;;;9.93;;
56541;SDS011;42438;53.174;6.730;2023-03-01T02:45:47;60.30;;;11.68;;
56541;SDS011;42438;53.174;6.730;2023-03-01T02:48:22;84.90;;;12.63;;
56541;SDS011;42438;53.174;6.730;2023-03-01T02:56:35;109.10;;;14.63;;
56541;SDS011;42438;53.174;6.730;2023-03-01T02:59:06;49.75;;;10.32;;
56541;SDS011;42438;53.174;6.730;2023-03-01T03:01:38;64.63;;;10.57;;
56541;SDS011;42438;53.174;6.730;2023-03-01T03:04:10;15.63;;;7.53;;
56541;SDS011;42438;53.174;6.730;2023-03-01T03:06:42;12.95;;;8.23;;
56541;SDS011;42438;53.174;6.730;2023-03-01T03:09:14;12.32;;;7.75;;
56541;SDS011;42438;53.174;6.730;2023-03-01T03:11:46;36.17;;;9.45;;
56541;SDS011;42438;53.174;6.730;2023-03-01T03:14:17;14.73;;;7.90;;
56541;SDS011;42438;53.174;6.730;2023-03-01T03:16:48;15.93;;;8.35;;
56541;SDS011;42438;53.174;6.730;2023-03-01T03:19:20;15.30;;;7.93;;
56541;SDS011;42438;53.174;6.730;2023-03-01T03:21:51;14.05;;;8.30;;
56541;SDS011;42438;53.174;6.730;2023-03-01T03:24:22;13.85;;;7.93;;
56541;SDS011;42438;53.174;6.730;2023-03-01T03:26:53;25.45;;;8.68;;
56541;SDS011;42438;53.174;6.730;2023-03-01T03:29:24;34.45;;;9.48;;
56541;SDS011;42438;53.174;6.730;2023-03-01T03:31:55;16.33;;;9.18;;
56541;SDS011;42438;53.174;6.730;2023-03-01T03:34:26;15.95;;;9.20;;
56541;SDS011;42438;53.174;6.730;2023-03-01T03:36:57;16.73;;;8.65;;
56541;SDS011;42438;53.174;6.730;2023-03-01T03:39:29;17.73;;;9.23;;
56541;SDS011;42438;53.174;6.730;2023-03-01T03:42:04;14.93;;;8.32;;
56541;SDS011;42438;53.174;6.730;2023-03-01T03:44:35;14.57;;;8.20;;
56541;SDS011;42438;53.174;6.730;2023-03-01T03:47:07;14.23;;;8.55;;
56541;SDS011;42438;53.174;6.730;2023-03-01T03:49:38;14.10;;;7.47;;
56541;SDS011;42438;53.174;6.730;2023-03-01T03:52:09;12.88;;;7.18;;
56541;SDS011;42438;53.174;6.730;2023-03-01T03:54:43;14.65;;;8.07;;
56541;SDS011;42438;53.174;6.730;2023-03-01T03:57:14;29.33;;;9.23;;
56541;SDS011;42438;53.174;6.730;2023-03-01T03:59:46;17.20;;;8.65;;
56541;SDS011;42438;53.174;6.730;2023-03-01T04:02:17;17.45;;;8.75;;
56541;SDS011;42438;53.174;6.730;2023-03-01T04:04:52;19.33;;;8.98;;
56541;SDS011;42438;53.174;6.730;2023-03-01T04:07:23;50.92;;;10.55;;
56541;SDS011;42438;53.174;6.730;2023-03-01T04:09:54;26.05;;;9.07;;
56541;SDS011;42438;53.174;6.730;2023-03-01T04:12:25;12.93;;;7.35;;
56541;SDS011;42438;53.174;6.730;2023-03-01T04:14:56;10.38;;;6.93;;
56541;SDS011;42438;53.174;6.730;2023-03-01T04:17:28;11.40;;;6.82;;
56541;SDS011;42438;53.174;6.730;2023-03-01T04:19:59;10.65;;;7.75;;
56541;SDS011;42438;53.174;6.730;2023-03-01T04:22:30;10.75;;;7.53;;
56541;SDS011;42438;53.174;6.730;2023-03-01T04:25:02;14.30;;;7.60;;
56541;SDS011;42438;53.174;6.730;2023-03-01T04:27:35;10.50;;;7.47;;
56541;SDS011;42438;53.174;6.730;2023-03-01T04:30:07;10.93;;;7.05;;
56541;SDS011;42438;53.174;6.730;2023-03-01T04:32:38;12.63;;;7.83;;
56541;SDS011;42438;53.174;6.730;2023-03-01T04:35:09;12.30;;;7.15;;
56541;SDS011;42438;53.174;6.730;2023-03-01T04:37:40;12.63;;;7.72;;
56541;SDS011;42438;53.174;6.730;2023-03-01T04:40:12;13.27;;;7.28;;
56541;SDS011;42438;53.174;6.730;2023-03-01T04:42:46;11.35;;;7.00;;
56541;SDS011;42438;53.174;6.730;2023-03-01T04:45:17;14.90;;;8.27;;
56541;SDS011;42438;53.174;6.730;2023-03-01T04:47:48;12.52;;;7.82;;
56541;SDS011;42438;53.174;6.730;2023-03-01T04:50:22;12.23;;;7.00;;
56541;SDS011;42438;53.174;6.730;2023-03-01T04:52:53;14.95;;;8.45;;
56541;SDS011;42438;53.174;6.730;2023-03-01T04:55:28;11.68;;;7.30;;
56541;SDS011;42438;53.174;6.730;2023-03-01T04:57:59;10.63;;;7.07;;
56541;SDS011;42438;53.174;6.730;2023-03-01T05:00:30;12.90;;;7.32;;
56541;SDS011;42438;53.174;6.730;2023-03-01T05:03:01;12.95;;;7.97;;
56541;SDS011;42438;53.174;6.730;2023-03-01T05:05:33;14.80;;;8.23;;
56541;SDS011;42438;53.174;6.730;2023-03-01T05:08:05;15.25;;;7.60;;
56541;SDS011;42438;53.174;6.730;2023-03-01T05:10:37;15.93;;;8.02;;
56541;SDS011;42438;53.174;6.730;2023-03-01T05:13:08;18.33;;;8.95;;
56541;SDS011;42438;53.174;6.730;2023-03-01T05:15:39;112.65;;;14.27;;
56541;SDS011;42438;53.174;6.730;2023-03-01T05:18:10;44.47;;;11.13;;
56541;SDS011;42438;53.174;6.730;2023-03-01T05:20:41;30.92;;;9.88;;
56541;SDS011;42438;53.174;6.730;2023-03-01T05:23:12;51.40;;;11.70;;
56541;SDS011;42438;53.174;6.730;2023-03-01T05:25:43;32.97;;;9.45;;
56541;SDS011;42438;53.174;6.730;2023-03-01T05:28:14;32.30;;;9.00;;
56541;SDS011;42438;53.174;6.730;2023-03-01T05:30:45;17.08;;;9.02;;
56541;SDS011;42438;53.174;6.730;2023-03-01T05:33:16;25.60;;;9.63;;
56541;SDS011;42438;53.174;6.730;2023-03-01T05:35:47;54.15;;;11.30;;
56541;SDS011;42438;53.174;6.730;2023-03-01T05:38:19;35.80;;;11.00;;
56541;SDS011;42438;53.174;6.730;2023-03-01T05:40:51;51.15;;;12.23;;
56541;SDS011;42438;53.174;6.730;2023-03-01T05:43:21;22.58;;;8.98;;
56541;SDS011;42438;53.174;6.730;2023-03-01T05:45:52;55.75;;;11.90;;
56541;SDS011;42438;53.174;6.730;2023-03-01T05:48:23;34.53;;;10.68;;
56541;SDS011;42438;53.174;6.730;2023-03-01T05:50:53;20.52;;;10.15;;
56541;SDS011;42438;53.174;6.730;2023-03-01T05:53:24;19.35;;;8.68;;
56541;SDS011;42438;53.174;6.730;2023-03-01T05:55:56;34.47;;;9.93;;
56541;SDS011;42438;53.174;6.730;2023-03-01T05:58:27;36.22;;;10.13;;
56541;SDS011;42438;53.174;6.730;2023-03-01T06:00:57;42.17;;;10.85;;
56541;SDS011;42438;53.174;6.730;2023-03-01T06:03:28;29.02;;;9.65;;
56541;SDS011;42438;53.174;6.730;2023-03-01T06:05:59;62.28;;;12.15;;
56541;SDS011;42438;53.174;6.730;2023-03-01T06:08:29;76.85;;;12.50;;
56541;SDS011;42438;53.174;6.730;2023-03-01T06:11:00;49.13;;;9.70;;
56541;SDS011;42438;53.174;6.730;2023-03-01T06:13:31;64.53;;;11.57;;
56541;SDS011;42438;53.174;6.730;2023-03-01T06:16:04;16.73;;;8.77;;
56541;SDS011;42438;53.174;6.730;2023-03-01T06:18:36;21.80;;;8.95;;
56541;SDS011;42438;53.174;6.730;2023-03-01T06:21:08;14.88;;;8.25;;
56541;SDS011;42438;53.174;6.730;2023-03-01T06:23:39;16.95;;;8.20;;
56541;SDS011;42438;53.174;6.730;2023-03-01T06:26:09;24.30;;;9.43;;
56541;SDS011;42438;53.174;6.730;2023-03-01T06:28:40;17.25;;;8.98;;
56541;SDS011;42438;53.174;6.730;2023-03-01T06:31:11;16.15;;;8.23;;
56541;SDS011;42438;53.174;6.730;2023-03-01T06:33:41;17.45;;;9.00;;
56541;SDS011;42438;53.174;6.730;2023-03-01T06:36:14;12.73;;;8.43;;
56541;SDS011;42438;53.174;6.730;2023-03-01T06:38:48;15.35;;;9.10;;
56541;SDS011;42438;53.174;6.730;2023-03-01T06:41:19;15.55;;;8.98;;
56541;SDS011;42438;53.174;6.730;2023-03-01T06:43:49;17.00;;;8.95;;
56541;SDS011;42438;53.174;6.730;2023-03-01T06:46:20;17.20;;;8.77;;
56541;SDS011;42438;53.174;6.730;2023-03-01T06:48:52;16.17;;;8.80;;
56541;SDS011;42438;53.174;6.730;2023-03-01T06:51:22;15.40;;;8.20;;
56541;SDS011;42438;53.174;6.730;2023-03-01T06:53:53;14.00;;;8.93;;
56541;SDS011;42438;53.174;6.730;2023-03-01T06:56:24;15.20;;;8.80;;
56541;SDS011;42438;53.174;6.730;2023-03-01T06:58:55;16.27;;;8.70;;
56541;SDS011;42438;53.174;6.730;2023-03-01T07:01:25;15.43;;;8.98;;
56541;SDS011;42438;53.174;6.730;2023-03-01T07:03:56;13.02;;;8.48;;
56541;SDS011;42438;53.174;6.730;2023-03-01T07:06:27;16.15;;;8.43;;
56541;SDS011;42438;53.174;6.730;2023-03-01T07:08:58;17.15;;;8.82;;
56541;SDS011;42438;53.174;6.730;2023-03-01T07:11:28;16.50;;;9.07;;
56541;SDS011;42438;53.174;6.730;2023-03-01T07:13:59;16.77;;;9.15;;
56541;SDS011;42438;53.174;6.730;2023-03-01T07:16:30;20.05;;;9.13;;
56541;SDS011;42438;53.174;6.730;2023-03-01T07:19:00;16.90;;;8.93;;
56541;SDS011;42438;53.174;6.730;2023-03-01T07:21:31;15.45;;;9.32;;
56541;SDS011;42438;53.174;6.730;2023-03-01T07:24:02;16.77;;;9.10;;
56541;SDS011;42438;53.174;6.730;2023-03-01T07:26:33;17.88;;;9.07;;
56541;SDS011;42438;53.174;6.730;2023-03-01T07:29:04;15.15;;;8.85;;
56541;SDS011;42438;53.174;6.730;2023-03-01T07:31:36;16.02;;;8.48;;
56541;SDS011;42438;53.174;6.730;2023-03-01T07:34:07;13.10;;;8.18;;
56541;SDS011;42438;53.174;6.730;2023-03-01T07:36:38;16.13;;;9.10;;
56541;SDS011;42438;53.174;6.730;2023-03-01T07:39:10;14.77;;;8.85;;
56541;SDS011;42438;53.174;6.730;2023-03-01T07:41:41;19.67;;;11.68;;
56541;SDS011;42438;53.174;6.730;2023-03-01T07:44:11;16.05;;;9.43;;
56541;SDS011;42438;53.174;6.730;2023-03-01T07:46:42;22.20;;;10.93;;
56541;SDS011;42438;53.174;6.730;2023-03-01T07:49:14;19.20;;;11.30;;
56541;SDS011;42438;53.174;6.730;2023-03-01T07:51:44;31.42;;;17.33;;
56541;SDS011;42438;53.174;6.730;2023-03-01T07:54:15;22.88;;;13.10;;
56541;SDS011;42438;53.174;6.730;2023-03-01T07:56:45;30.48;;;15.90;;
56541;SDS011;42438;53.174;6.730;2023-03-01T07:59:16;25.30;;;13.32;;
56541;SDS011;42438;53.174;6.730;2023-03-01T08:01:47;23.50;;;12.82;;
56541;SDS011;42438;53.174;6.730;2023-03-01T08:04:18;36.70;;;20.83;;
56541;SDS011;42438;53.174;6.730;2023-03-01T08:06:48;33.83;;;16.60;;
56541;SDS011;42438;53.174;6.730;2023-03-01T08:09:19;38.38;;;17.52;;
56541;SDS011;42438;53.174;6.730;2023-03-01T08:11:50;39.08;;;19.08;;
56541;SDS011;42438;53.174;6.730;2023-03-01T08:14:21;38.50;;;18.92;;
56541;SDS011;42438;53.174;6.730;2023-03-01T08:16:51;32.20;;;15.93;;
56541;SDS011;42438;53.174;6.730;2023-03-01T08:19:22;31.77;;;16.48;;
56541;SDS011;42438;53.174;6.730;2023-03-01T08:21:53;40.72;;;19.70;;
56541;SDS011;42438;53.174;6.730;2023-03-01T08:24:24;42.45;;;20.67;;
56541;SDS011;42438;53.174;6.730;2023-03-01T08:26:54;44.38;;;20.67;;
56541;SDS011;42438;53.174;6.730;2023-03-01T08:29:25;39.33;;;20.67;;
56541;SDS011;42438;53.174;6.730;2023-03-01T08:31:56;48.38;;;22.00;;
56541;SDS011;42438;53.174;6.730;2023-03-01T08:34:27;56.78;;;24.65;;
56541;SDS011;42438;53.174;6.730;2023-03-01T08:36:57;61.95;;;26.60;;
56541;SDS011;42438;53.174;6.730;2023-03-01T08:39:28;53.58;;;24.58;;
56541;SDS011;42438;53.174;6.730;2023-03-01T08:41:59;52.47;;;25.83;;
56541;SDS011;42438;53.174;6.730;2023-03-01T08:44:29;49.75;;;24.90;;
56541;SDS011;42438;53.174;6.730;2023-03-01T08:47:00;51.13;;;23.27;;
56541;SDS011;42438;53.174;6.730;2023-03-01T08:49:32;55.20;;;25.23;;
56541;SDS011;42438;53.174;6.730;2023-03-01T08:52:02;60.70;;;27.13;;
56541;SDS011;42438;53.174;6.730;2023-03-01T08:54:33;58.38;;;27.20;;
56541;SDS011;42438;53.174;6.730;2023-03-01T08:57:04;60.80;;;26.55;;
56541;SDS011;42438;53.174;6.730;2023-03-01T08:59:35;61.25;;;26.63;;
56541;SDS011;42438;53.174;6.730;2023-03-01T09:02:11;62.53;;;27.52;;
56541;SDS011;42438;53.174;6.730;2023-03-01T09:04:44;59.67;;;26.75;;
56541;SDS011;42438;53.174;6.730;2023-03-01T09:07:14;60.00;;;27.77;;
56541;SDS011;42438;53.174;6.730;2023-03-01T09:09:45;58.58;;;27.38;;
56541;SDS011;42438;53.174;6.730;2023-03-01T09:12:16;58.17;;;30.00;;
56541;SDS011;42438;53.174;6.730;2023-03-01T09:14:46;59.60;;;27.67;;
56541;SDS011;42438;53.174;6.730;2023-03-01T09:17:17;57.45;;;27.83;;
56541;SDS011;42438;53.174;6.730;2023-03-01T09:19:48;60.50;;;30.13;;
56541;SDS011;42438;53.174;6.730;2023-03-01T09:22:19;61.35;;;30.45;;
56541;SDS011;42438;53.174;6.730;2023-03-01T09:24:50;62.83;;;28.77;;
56541;SDS011;42438;53.174;6.730;2023-03-01T09:27:20;64.60;;;30.83;;
56541;SDS011;42438;53.174;6.730;2023-03-01T09:29:51;56.72;;;30.83;;
56541;SDS011;42438;53.174;6.730;2023-03-01T09:32:22;50.83;;;25.10;;
56541;SDS011;42438;53.174;6.730;2023-03-01T09:34:52;62.53;;;33.03;;
56541;SDS011;42438;53.174;6.730;2023-03-01T09:37:35;60.55;;;33.30;;
56541;SDS011;42438;53.174;6.730;2023-03-01T09:40:09;53.67;;;27.23;;
56541;SDS011;42438;53.174;6.730;2023-03-01T09:42:54;49.08;;;24.67;;
56541;SDS011;42438;53.174;6.730;2023-03-01T09:45:37;47.70;;;24.27;;
56541;SDS011;42438;53.174;6.730;2023-03-01T09:48:17;45.25;;;24.85;;
56541;SDS011;42438;53.174;6.730;2023-03-01T09:50:52;40.30;;;21.10;;
56541;SDS011;42438;53.174;6.730;2023-03-01T09:53:25;38.83;;;21.30;;
56541;SDS011;42438;53.174;6.730;2023-03-01T09:56:05;44.83;;;22.58;;
56541;SDS011;42438;53.174;6.730;2023-03-01T10:01:54;44.97;;;22.25;;
56541;SDS011;42438;53.174;6.730;2023-03-01T10:10:07;40.65;;;19.38;;
56541;SDS011;42438;53.174;6.730;2023-03-01T10:12:39;41.03;;;20.60;;
56541;SDS011;42438;53.174;6.730;2023-03-01T10:15:18;45.65;;;21.80;;
56541;SDS011;42438;53.174;6.730;2023-03-01T10:20:36;40.40;;;22.20;;
56541;SDS011;42438;53.174;6.730;2023-03-01T10:23:23;53.97;;;31.27;;
56541;SDS011;42438;53.174;6.730;2023-03-01T10:29:03;34.22;;;17.17;;
56541;SDS011;42438;53.174;6.730;2023-03-01T10:31:39;37.00;;;18.70;;
56541;SDS011;42438;53.174;6.730;2023-03-01T10:34:21;35.30;;;18.20;;
56541;SDS011;42438;53.174;6.730;2023-03-01T10:37:01;31.70;;;16.88;;
56541;SDS011;42438;53.174;6.730;2023-03-01T10:39:55;35.15;;;17.20;;
56541;SDS011;42438;53.174;6.730;2023-03-01T10:42:33;28.90;;;16.67;;
56541;SDS011;42438;53.174;6.730;2023-03-01T10:45:49;33.30;;;16.20;;
56541;SDS011;42438;53.174;6.730;2023-03-01T10:50:43;32.53;;;15.82;;
56541;SDS011;42438;53.174;6.730;2023-03-01T10:56:03;25.35;;;14.52;;
56541;SDS011;42438;53.174;6.730;2023-03-01T10:59:05;25.30;;;14.30;;
56541;SDS011;42438;53.174;6.730;2023-03-01T11:02:00;28.60;;;15.05;;
56541;SDS011;42438;53.174;6.730;2023-03-01T11:04:34;25.42;;;14.38;;
56541;SDS011;42438;53.174;6.730;2023-03-01T11:07:04;27.73;;;15.38;;
56541;SDS011;42438;53.174;6.730;2023-03-01T11:09:35;25.95;;;14.27;;
56541;SDS011;42438;53.174;6.730;2023-03-01T11:12:13;30.67;;;15.50;;
56541;SDS011;42438;53.174;6.730;2023-03-01T11:14:46;28.67;;;14.85;;
56541;SDS011;42438;53.174;6.730;2023-03-01T11:22:46;27.08;;;13.68;;
56541;SDS011;42438;53.174;6.730;2023-03-01T11:25:23;27.08;;;14.23;;
56541;SDS011;42438;53.174;6.730;2023-03-01T11:28:00;27.60;;;14.55;;
56541;SDS011;42438;53.174;6.730;2023-03-01T11:30:40;27.30;;;15.65;;
56541;SDS011;42438;53.174;6.730;2023-03-01T11:36:10;22.35;;;13.15;;
56541;SDS011;42438;53.174;6.730;2023-03-01T11:39:22;24.50;;;12.23;;
56541;SDS011;42438;53.174;6.730;2023-03-01T11:42:48;23.52;;;13.13;;
56541;SDS011;42438;53.174;6.730;2023-03-01T11:44:58;23.02;;;12.20;;
56541;SDS011;42438;53.174;6.730;2023-03-01T11:55:43;22.23;;;12.48;;
56541;SDS011;42438;53.174;6.730;2023-03-01T12:07:18;22.20;;;12.55;;
56541;SDS011;42438;53.174;6.730;2023-03-01T12:10:14;22.25;;;11.85;;
56541;SDS011;42438;53.174;6.730;2023-03-01T12:15:55;19.20;;;9.83;;
56541;SDS011;42438;53.174;6.730;2023-03-01T12:28:55;19.55;;;10.93;;
56541;SDS011;42438;53.174;6.730;2023-03-01T12:32:03;35.25;;;13.07;;
56541;SDS011;42438;53.174;6.730;2023-03-01T12:35:05;18.77;;;9.80;;
56541;SDS011;42438;53.174;6.730;2023-03-01T12:37:59;16.77;;;10.50;;
56541;SDS011;42438;53.174;6.730;2023-03-01T12:49:25;23.30;;;13.02;;
56541;SDS011;42438;53.174;6.730;2023-03-01T12:52:38;18.17;;;11.27;;
56541;SDS011;42438;53.174;6.730;2023-03-01T13:06:44;19.50;;;11.30;;
56541;SDS011;42438;53.174;6.730;2023-03-01T13:09:36;17.95;;;10.85;;
56541;SDS011;42438;53.174;6.730;2023-03-01T13:17:54;20.55;;;11.55;;
56541;SDS011;42438;53.174;6.730;2023-03-01T13:20:48;16.52;;;9.55;;
56541;SDS011;42438;53.174;6.730;2023-03-01T13:31:06;17.42;;;10.27;;
56541;SDS011;42438;53.174;6.730;2023-03-01T13:33:47;21.23;;;12.05;;
56541;SDS011;42438;53.174;6.730;2023-03-01T13:39:00;21.33;;;10.80;;
56541;SDS011;42438;53.174;6.730;2023-03-01T13:44:26;21.83;;;11.30;;
56541;SDS011;42438;53.174;6.730;2023-03-01T13:47:17;20.65;;;11.10;;
56541;SDS011;42438;53.174;6.730;2023-03-01T13:57:45;24.35;;;12.63;;
56541;SDS011;42438;53.174;6.730;2023-03-01T14:03:11;22.30;;;12.45;;
56541;SDS011;42438;53.174;6.730;2023-03-01T14:05:56;24.13;;;13.05;;
56541;SDS011;42438;53.174;6.730;2023-03-01T14:08:30;22.80;;;12.20;;
56541;SDS011;42438;53.174;6.730;2023-03-01T14:14:09;22.42;;;12.30;;
56541;SDS011;42438;53.174;6.730;2023-03-01T14:19:27;27.35;;;14.35;;
56541;SDS011;42438;53.174;6.730;2023-03-01T14:24:48;22.10;;;12.65;;
56541;SDS011;42438;53.174;6.730;2023-03-01T14:27:21;24.13;;;14.02;;
56541;SDS011;42438;53.174;6.730;2023-03-01T14:29:58;22.75;;;12.38;;
56541;SDS011;42438;53.174;6.730;2023-03-01T14:32:31;23.52;;;13.15;;
56541;SDS011;42438;53.174;6.730;2023-03-01T14:35:02;24.15;;;13.88;;
56541;SDS011;42438;53.174;6.730;2023-03-01T14:37:34;25.70;;;13.40;;
56541;SDS011;42438;53.174;6.730;2023-03-01T14:40:05;23.73;;;13.55;;
56541;SDS011;42438;53.174;6.730;2023-03-01T14:42:53;23.92;;;13.35;;
56541;SDS011;42438;53.174;6.730;2023-03-01T14:45:26;22.08;;;12.65;;
56541;SDS011;42438;53.174;6.730;2023-03-01T14:47:59;23.83;;;13.40;;
56541;SDS011;42438;53.174;6.730;2023-03-01T14:53:04;22.52;;;13.32;;
56541;SDS011;42438;53.174;6.730;2023-03-01T14:55:38;20.42;;;12.68;;
56541;SDS011;42438;53.174;6.730;2023-03-01T14:58:15;23.88;;;13.40;;
56541;SDS011;42438;53.174;6.730;2023-03-01T15:00:51;25.15;;;14.25;;
56541;SDS011;42438;53.174;6.730;2023-03-01T15:03:31;22.38;;;14.23;;
56541;SDS011;42438;53.174;6.730;2023-03-01T15:06:05;22.90;;;12.63;;
56541;SDS011;42438;53.174;6.730;2023-03-01T15:08:37;24.83;;;14.82;;
56541;SDS011;42438;53.174;6.730;2023-03-01T15:11:20;24.38;;;13.95;;
56541;SDS011;42438;53.174;6.730;2023-03-01T15:14:01;24.33;;;13.32;;
56541;SDS011;42438;53.174;6.730;2023-03-01T15:16:52;27.85;;;15.48;;
56541;SDS011;42438;53.174;6.730;2023-03-01T15:19:23;30.33;;;15.73;;
56541;SDS011;42438;53.174;6.730;2023-03-01T15:21:56;24.60;;;14.00;;
56541;SDS011;42438;53.174;6.730;2023-03-01T15:24:27;25.95;;;13.77;;
56541;SDS011;42438;53.174;6.730;2023-03-01T15:26:59;21.88;;;13.68;;
56541;SDS011;42438;53.174;6.730;2023-03-01T15:29:36;22.77;;;13.63;;
56541;SDS011;42438;53.174;6.730;2023-03-01T15:32:32;23.13;;;13.20;;
56541;SDS011;42438;53.174;6.730;2023-03-01T15:41:01;25.63;;;12.77;;
56541;SDS011;42438;53.174;6.730;2023-03-01T15:43:38;24.73;;;12.88;;
56541;SDS011;42438;53.174;6.730;2023-03-01T15:46:15;21.98;;;12.30;;
56541;SDS011;42438;53.174;6.730;2023-03-01T15:48:51;23.55;;;12.80;;
56541;SDS011;42438;53.174;6.730;2023-03-01T15:51:34;23.85;;;12.88;;
56541;SDS011;42438;53.174;6.730;2023-03-01T15:54:08;25.48;;;12.43;;
56541;SDS011;42438;53.174;6.730;2023-03-01T15:56:51;25.02;;;13.05;;
56541;SDS011;42438;53.174;6.730;2023-03-01T15:59:22;23.13;;;12.52;;
56541;SDS011;42438;53.174;6.730;2023-03-01T16:01:52;23.90;;;12.80;;
56541;SDS011;42438;53.174;6.730;2023-03-01T16:04:23;21.75;;;11.60;;
56541;SDS011;42438;53.174;6.730;2023-03-01T16:06:54;23.35;;;12.05;;
56541;SDS011;42438;53.174;6.730;2023-03-01T16:09:25;21.02;;;11.43;;
56541;SDS011;42438;53.174;6.730;2023-03-01T16:11:56;22.38;;;11.75;;
56541;SDS011;42438;53.174;6.730;2023-03-01T16:14:27;20.85;;;11.10;;
56541;SDS011;42438;53.174;6.730;2023-03-01T16:16:58;20.60;;;11.25;;
56541;SDS011;42438;53.174;6.730;2023-03-01T16:19:29;20.40;;;12.10;;
56541;SDS011;42438;53.174;6.730;2023-03-01T16:22:00;23.58;;;12.60;;
56541;SDS011;42438;53.174;6.730;2023-03-01T16:24:30;21.38;;;12.18;;
56541;SDS011;42438;53.174;6.730;2023-03-01T16:27:02;22.77;;;11.95;;
56541;SDS011;42438;53.174;6.730;2023-03-01T16:29:33;18.17;;;11.23;;
56541;SDS011;42438;53.174;6.730;2023-03-01T16:32:05;22.45;;;12.00;;
56541;SDS011;42438;53.174;6.730;2023-03-01T16:34:35;22.52;;;12.50;;
56541;SDS011;42438;53.174;6.730;2023-03-01T16:37:06;22.13;;;11.90;;
56541;SDS011;42438;53.174;6.730;2023-03-01T16:39:37;21.67;;;11.60;;
56541;SDS011;42438;53.174;6.730;2023-03-01T16:42:08;20.30;;;12.18;;
56541;SDS011;42438;53.174;6.730;2023-03-01T16:44:39;22.17;;;11.48;;
56541;SDS011;42438;53.174;6.730;2023-03-01T16:47:10;23.52;;;12.25;;
56541;SDS011;42438;53.174;6.730;2023-03-01T16:49:40;22.50;;;12.10;;
56541;SDS011;42438;53.174;6.730;2023-03-01T16:52:11;22.55;;;11.73;;
56541;SDS011;42438;53.174;6.730;2023-03-01T16:54:42;21.33;;;12.75;;
56541;SDS011;42438;53.174;6.730;2023-03-01T16:57:12;23.70;;;12.70;;
56541;SDS011;42438;53.174;6.730;2023-03-01T16:59:43;21.42;;;11.70;;
56541;SDS011;42438;53.174;6.730;2023-03-01T17:02:15;19.55;;;11.43;;
56541;SDS011;42438;53.174;6.730;2023-03-01T17:04:57;25.17;;;13.43;;
56541;SDS011;42438;53.174;6.730;2023-03-01T17:07:28;20.83;;;11.55;;
56541;SDS011;42438;53.174;6.730;2023-03-01T17:10:03;21.17;;;12.23;;
56541;SDS011;42438;53.174;6.730;2023-03-01T17:12:38;23.25;;;12.10;;
56541;SDS011;42438;53.174;6.730;2023-03-01T17:15:09;23.13;;;12.15;;
56541;SDS011;42438;53.174;6.730;2023-03-01T17:17:41;26.55;;;12.88;;
56541;SDS011;42438;53.174;6.730;2023-03-01T17:20:12;24.27;;;12.35;;
56541;SDS011;42438;53.174;6.730;2023-03-01T17:22:43;24.33;;;12.63;;
56541;SDS011;42438;53.174;6.730;2023-03-01T17:25:13;25.38;;;12.57;;